Marigola — IBEL — position and weather

sailwx.info

Track history (hours):
 
Tides and Currents Weather Stations Pressure Air Temp Water Temp Dewpoint Dewpoint Depression Visibility Wind Speed Wind Dir Waves Ship Positions

Marigola

Last reported at 2015-Mar-22 21:21 UTC. Time now 2015-Apr-01 21:20 UTC.
Position N 23°40' W 081°07'.
Warning: this ship's position is 9 days out of date.

Length 145 m; draft 6.6 m.

Type: Ship (hazmat cat A). MMSI: 247567000.

Date/timePositionNaut miles runAvg speedWind from/ knotsBaromVisibWave heightAir tempDewpointWater temp
2015-Mar-22 21:21N 23°40' W 081°07'14312.8
2015-Mar-22 10:09N 25°06' W 083°12'915.3
2015-Mar-22 09:33N 25°15' W 083°11'1515.2
2015-Mar-22 08:33N 25°30' W 083°10'1715.6
2015-Mar-22 07:28N 25°47' W 083°09'1415.5
2015-Mar-22 06:33N 26°01' W 083°08'1915.4
2015-Mar-22 05:18N 26°20' W 083°07'1415.2
2015-Mar-22 04:22N 26°35' W 083°06'1215.1
2015-Mar-22 03:33N 26°47' W 083°05'1514.9
2015-Mar-22 02:31N 27°02' W 083°04'1514.5
2015-Mar-22 01:30N 27°17' W 083°03'2211.1
2015-Mar-21 23:33N 27°36' W 082°52'1414.2
2015-Mar-21 22:32N 27°40' W 082°36'1313.1
2015-Mar-21 21:33N 27°49' W 082°27'5 5.1
2015-Mar-21 20:33N 27°54' W 082°25'0 0.0
2015-Mar-21 19:33N 27°54' W 082°25'0 0.0
2015-Mar-21 18:33N 27°54' W 082°25'0 0.0
2015-Mar-21 17:33N 27°54' W 082°25'0 0.0
2015-Mar-21 16:33N 27°54' W 082°25'0 0.0
2015-Mar-21 15:33N 27°54' W 082°25'0 0.0
2015-Mar-21 14:33N 27°54' W 082°25'0 0.0
2015-Mar-21 13:33N 27°54' W 082°25'0 0.0
2015-Mar-21 12:33N 27°54' W 082°25'0 0.0
2015-Mar-21 11:33N 27°54' W 082°25'0 0.0
2015-Mar-21 10:33N 27°54' W 082°25'0 0.0
2015-Mar-21 09:30N 27°54' W 082°25'0 0.0
2015-Mar-21 08:33N 27°54' W 082°25'0 0.0
2015-Mar-21 07:30N 27°54' W 082°25'0 0.0
2015-Mar-21 06:33N 27°54' W 082°25'0 0.0
2015-Mar-21 05:33N 27°54' W 082°25'0 0.0
2015-Mar-21 04:33N 27°54' W 082°25'0 0.0
2015-Mar-21 03:33N 27°54' W 082°25'0 0.0
2015-Mar-21 02:30N 27°54' W 082°25'0 0.0
2015-Mar-21 01:33N 27°54' W 082°25'0 0.0
2015-Mar-21 00:33N 27°54' W 082°25'0 0.0
2015-Mar-20 23:33N 27°54' W 082°25'0 0.0
2015-Mar-20 22:33N 27°54' W 082°25'0 0.0
2015-Mar-20 21:33N 27°54' W 082°25'0 0.0
2015-Mar-20 20:33N 27°54' W 082°25'0 0.0
2015-Mar-20 19:33N 27°54' W 082°25'0 0.0
2015-Mar-20 18:33N 27°54' W 082°25'0 0.0
2015-Mar-20 17:33N 27°54' W 082°25'0 0.0
2015-Mar-20 16:33N 27°54' W 082°25'0 0.0
2015-Mar-20 15:33N 27°54' W 082°25'0 0.0
2015-Mar-20 14:30N 27°54' W 082°25'0 0.0
2015-Mar-20 13:33N 27°54' W 082°25'0 0.0
2015-Mar-20 12:33N 27°54' W 082°25'1 0.7
2015-Mar-20 11:33N 27°54' W 082°26'4 3.6
2015-Mar-20 10:33N 27°51' W 082°27'1010.1
2015-Mar-20 09:33N 27°42' W 082°33'1111.1
2015-Mar-20 08:33N 27°36' W 082°43'1211.5
2015-Mar-20 07:33N 27°36' W 082°56'9 9.5
2015-Mar-20 06:33N 27°28' W 083°02'1212.4
2015-Mar-20 05:33N 27°15' W 083°03'1414.0
2015-Mar-20 04:34N 27°02' W 083°04'1414.0
2015-Mar-20 03:33N 26°47' W 083°05'1413.9
2015-Mar-20 02:31N 26°33' W 083°06'1413.8
2015-Mar-20 01:29N 26°19' W 083°07'10 4.6
2015-Mar-19 23:19N 26°09' W 083°08'1114.0
2015-Mar-19 22:33N 25°58' W 083°08'1513.9
2015-Mar-19 21:30N 25°44' W 083°09'1313.8
2015-Mar-19 20:33N 25°31' W 083°10'1613.8
2015-Mar-19 19:24N 25°15' W 083°11'  
Track history (hours):
 
Tides and Currents Weather Stations Pressure Air Temp Water Temp Dewpoint Dewpoint Depression Visibility Wind Speed Wind Dir Waves Ship Positions

Marigola

Last reported at 2015-Mar-22 21:21 UTC. Time now 2015-Apr-01 21:20 UTC.
Position N 23°40' W 081°07'.
Warning: this ship's position is 9 days out of date.

Length 145 m; draft 6.6 m.

Type: Ship (hazmat cat A). MMSI: 247567000.

Date/timePositionNaut miles runAvg speedWind from/ knotsBaromVisibWave heightAir tempDewpointWater temp
2015-Mar-22 21:21N 23°40' W 081°07'14312.8
2015-Mar-22 10:09N 25°06' W 083°12'915.3
2015-Mar-22 09:33N 25°15' W 083°11'1515.2
2015-Mar-22 08:33N 25°30' W 083°10'1715.6
2015-Mar-22 07:28N 25°47' W 083°09'1415.5
2015-Mar-22 06:33N 26°01' W 083°08'1915.4
2015-Mar-22 05:18N 26°20' W 083°07'1415.2
2015-Mar-22 04:22N 26°35' W 083°06'1215.1
2015-Mar-22 03:33N 26°47' W 083°05'1514.9
2015-Mar-22 02:31N 27°02' W 083°04'1514.5
2015-Mar-22 01:30N 27°17' W 083°03'2211.1
2015-Mar-21 23:33N 27°36' W 082°52'1414.2
2015-Mar-21 22:32N 27°40' W 082°36'1313.1
2015-Mar-21 21:33N 27°49' W 082°27'5 5.1
2015-Mar-21 20:33N 27°54' W 082°25'0 0.0
2015-Mar-21 19:33N 27°54' W 082°25'0 0.0
2015-Mar-21 18:33N 27°54' W 082°25'0 0.0
2015-Mar-21 17:33N 27°54' W 082°25'0 0.0
2015-Mar-21 16:33N 27°54' W 082°25'0 0.0
2015-Mar-21 15:33N 27°54' W 082°25'0 0.0
2015-Mar-21 14:33N 27°54' W 082°25'0 0.0
2015-Mar-21 13:33N 27°54' W 082°25'0 0.0
2015-Mar-21 12:33N 27°54' W 082°25'0 0.0
2015-Mar-21 11:33N 27°54' W 082°25'0 0.0
2015-Mar-21 10:33N 27°54' W 082°25'0 0.0
2015-Mar-21 09:30N 27°54' W 082°25'0 0.0
2015-Mar-21 08:33N 27°54' W 082°25'0 0.0
2015-Mar-21 07:30N 27°54' W 082°25'0 0.0
2015-Mar-21 06:33N 27°54' W 082°25'0 0.0
2015-Mar-21 05:33N 27°54' W 082°25'0 0.0
2015-Mar-21 04:33N 27°54' W 082°25'0 0.0
2015-Mar-21 03:33N 27°54' W 082°25'0 0.0
2015-Mar-21 02:30N 27°54' W 082°25'0 0.0
2015-Mar-21 01:33N 27°54' W 082°25'0 0.0
2015-Mar-21 00:33N 27°54' W 082°25'0 0.0
2015-Mar-20 23:33N 27°54' W 082°25'0 0.0
2015-Mar-20 22:33N 27°54' W 082°25'0 0.0
2015-Mar-20 21:33N 27°54' W 082°25'0 0.0
2015-Mar-20 20:33N 27°54' W 082°25'0 0.0
2015-Mar-20 19:33N 27°54' W 082°25'0 0.0
2015-Mar-20 18:33N 27°54' W 082°25'0 0.0
2015-Mar-20 17:33N 27°54' W 082°25'0 0.0
2015-Mar-20 16:33N 27°54' W 082°25'0 0.0
2015-Mar-20 15:33N 27°54' W 082°25'0 0.0
2015-Mar-20 14:30N 27°54' W 082°25'0 0.0
2015-Mar-20 13:33N 27°54' W 082°25'0 0.0
2015-Mar-20 12:33N 27°54' W 082°25'1 0.7
2015-Mar-20 11:33N 27°54' W 082°26'4 3.6
2015-Mar-20 10:33N 27°51' W 082°27'1010.1
2015-Mar-20 09:33N 27°42' W 082°33'1111.1
2015-Mar-20 08:33N 27°36' W 082°43'1211.5
2015-Mar-20 07:33N 27°36' W 082°56'9 9.5
2015-Mar-20 06:33N 27°28' W 083°02'1212.4
2015-Mar-20 05:33N 27°15' W 083°03'1414.0
2015-Mar-20 04:34N 27°02' W 083°04'1414.0
2015-Mar-20 03:33N 26°47' W 083°05'1413.9
2015-Mar-20 02:31N 26°33' W 083°06'1413.8
2015-Mar-20 01:29N 26°19' W 083°07'10 4.6
2015-Mar-19 23:19N 26°09' W 083°08'1114.0
2015-Mar-19 22:33N 25°58' W 083°08'1513.9
2015-Mar-19 21:30N 25°44' W 083°09'1313.8
2015-Mar-19 20:33N 25°31' W 083°10'1613.8
2015-Mar-19 19:24N 25°15' W 083°11'  

Dump ship's entire track history